createdAt,value
2019-06-10T00:01:47.446Z,1.47
2019-06-10T00:04:13.785Z,1.40
2019-06-10T00:06:41.539Z,1.57
2019-06-10T00:09:08.076Z,1.60
2019-06-10T00:11:32.894Z,1.60
2019-06-10T00:14:02.470Z,1.40
2019-06-10T00:16:25.697Z,1.43
2019-06-10T00:18:52.029Z,1.43
2019-06-10T00:21:18.391Z,1.57
2019-06-10T00:23:44.723Z,1.40
2019-06-10T00:26:12.470Z,1.50
2019-06-10T00:28:37.420Z,1.50
2019-06-10T00:31:05.307Z,1.53
2019-06-10T00:33:30.888Z,1.50
2019-06-10T00:35:56.420Z,1.60
2019-06-10T00:38:22.766Z,1.60
2019-06-10T00:40:51.260Z,1.50
2019-06-10T00:43:15.587Z,1.60
2019-06-10T00:45:41.936Z,1.50
2019-06-10T00:48:21.433Z,1.73
2019-06-10T00:50:34.663Z,1.20
2019-06-10T00:53:02.571Z,1.60
2019-06-10T00:55:27.359Z,1.37
2019-06-10T00:57:53.698Z,1.60
2019-06-10T01:00:25.448Z,1.70
2019-06-10T01:02:46.387Z,1.73
2019-06-10T01:05:15.266Z,1.50
2019-06-10T01:07:41.232Z,1.63
2019-06-10T01:10:06.707Z,1.60
2019-06-10T01:12:31.798Z,1.53
2019-06-10T01:14:58.143Z,1.50
2019-06-10T01:17:24.501Z,1.90
2019-06-10T01:19:50.998Z,1.57
2019-06-10T01:22:17.430Z,1.50
2019-06-10T01:24:43.659Z,1.50
2019-06-10T01:27:11.902Z,1.43
2019-06-10T01:32:02.685Z,1.70
2019-06-10T01:34:31.041Z,1.50
2019-06-10T01:36:55.419Z,1.70
2019-06-10T01:39:22.671Z,1.67
2019-06-10T01:41:48.160Z,1.60
2019-06-10T01:44:16.080Z,1.40
2019-06-10T01:46:41.095Z,1.43
2019-06-10T01:49:07.156Z,1.60
2019-06-10T01:51:33.495Z,1.63
2019-06-10T01:54:01.314Z,1.30
2019-06-10T01:56:26.244Z,1.60
2019-06-10T01:58:52.586Z,1.40
2019-06-10T02:01:22.824Z,1.60
2019-06-10T02:03:45.263Z,1.43
2019-06-10T02:06:16.009Z,1.50
2019-06-10T02:08:38.195Z,1.40
2019-06-10T02:11:04.549Z,1.87
2019-06-10T02:13:32.698Z,1.60
2019-06-10T02:15:57.222Z,1.63
2019-06-10T02:18:23.555Z,1.47
2019-06-10T02:20:51.418Z,1.50
2019-06-10T02:23:17.056Z,1.53
2019-06-10T02:25:42.532Z,1.53
2019-06-10T02:28:08.899Z,1.50
2019-06-10T02:30:44.148Z,1.40
2019-06-10T02:35:40.171Z,1.40
2019-06-10T02:37:54.263Z,1.40
2019-06-10T02:40:28.236Z,1.50
2019-06-10T02:42:46.931Z,1.37
2019-06-10T02:45:15.208Z,1.70
2019-06-10T02:47:39.609Z,1.50
2019-06-10T02:50:08.886Z,1.70
2019-06-10T02:52:37.762Z,1.30
2019-06-10T02:54:58.638Z,1.50
2019-06-10T02:57:32.976Z,1.60
2019-06-10T02:59:54.351Z,1.40
2019-06-10T03:02:18.773Z,1.50
2019-06-10T03:04:44.191Z,1.60
2019-06-10T03:07:13.605Z,2.07
2019-06-10T03:09:36.824Z,1.40
2019-06-10T03:12:04.757Z,1.30
2019-06-10T03:14:29.484Z,1.83
2019-06-10T03:19:38.381Z,2.20
2019-06-10T03:21:48.522Z,1.80
2019-06-10T03:24:15.036Z,2.33
2019-06-10T03:26:42.824Z,1.90
2019-06-10T03:29:07.549Z,2.10
2019-06-10T03:31:41.346Z,2.50
2019-06-10T03:34:04.550Z,2.13
2019-06-10T03:36:27.317Z,1.70
2019-06-10T03:38:53.706Z,2.00
2019-06-10T03:41:20.581Z,1.80
2019-06-10T03:43:45.746Z,1.70
2019-06-10T03:46:13.673Z,2.00
2019-06-10T03:51:04.748Z,1.77
2019-06-10T03:53:33.369Z,1.77
2019-06-10T03:55:57.404Z,1.70
2019-06-10T03:58:26.188Z,1.90
2019-06-10T04:00:52.249Z,1.57
2019-06-10T04:03:17.339Z,2.23
2019-06-10T04:05:42.941Z,1.70
2019-06-10T04:08:09.297Z,1.57
2019-06-10T04:10:35.681Z,1.70
2019-06-10T04:13:02.587Z,1.83
2019-06-10T04:15:29.501Z,1.93
2019-06-10T04:17:54.670Z,2.33
2019-06-10T04:20:24.656Z,5.00
2019-06-10T04:22:47.338Z,3.80
2019-06-10T04:25:13.724Z,3.37
2019-06-10T04:27:42.257Z,3.53
2019-06-10T04:30:06.491Z,4.00
2019-06-10T04:32:32.834Z,3.43
2019-06-10T04:34:59.191Z,3.37
2019-06-10T04:37:27.506Z,2.97
2019-06-10T04:39:53.030Z,2.20
2019-06-10T04:42:18.400Z,3.13
2019-06-10T04:44:44.502Z,3.03
2019-06-10T04:47:12.047Z,2.67
2019-06-10T04:49:37.178Z,2.10
2019-06-10T04:52:03.516Z,2.80
2019-06-10T04:54:30.066Z,1.90
2019-06-10T04:56:56.169Z,2.10
2019-06-10T04:59:24.259Z,2.10
2019-06-10T05:01:48.838Z,1.77
2019-06-10T05:04:15.161Z,2.20
2019-06-10T05:06:42.223Z,2.20
2019-06-10T05:09:07.901Z,2.30
2019-06-10T05:11:34.277Z,1.67
2019-06-10T05:16:30.331Z,1.53
2019-06-10T05:18:54.879Z,1.87
2019-06-10T05:21:19.825Z,2.10
2019-06-10T05:23:46.071Z,1.90
2019-06-10T05:26:13.304Z,2.00
2019-06-10T05:28:38.735Z,2.00
2019-06-10T05:31:05.085Z,2.10
2019-06-10T05:33:33.493Z,2.10
2019-06-10T05:38:26.838Z,2.00
2019-06-10T05:40:52.144Z,1.73
2019-06-10T05:43:16.719Z,1.93
2019-06-10T05:45:43.058Z,1.80
2019-06-10T05:48:09.376Z,2.10
2019-06-10T05:50:35.710Z,1.93
2019-06-10T05:53:02.524Z,1.70
2019-06-10T05:55:29.072Z,2.00
2019-06-10T05:57:54.732Z,1.83
2019-06-10T06:00:23.410Z,1.70
2019-06-10T06:02:47.395Z,2.10
2019-06-10T06:05:13.758Z,1.63
2019-06-10T06:07:42.140Z,1.63
2019-06-10T06:10:06.426Z,2.00
2019-06-10T06:12:34.538Z,1.90
2019-06-10T06:14:59.113Z,2.00
2019-06-10T06:17:25.872Z,1.93
2019-06-10T06:19:53.434Z,1.83
2019-06-10T06:22:18.178Z,2.00
2019-06-10T06:24:44.537Z,1.93
2019-06-10T06:27:13.091Z,2.27
2019-06-10T06:29:38.292Z,1.90
2019-06-10T06:34:30.861Z,1.87
2019-06-10T06:36:56.472Z,1.60
2019-06-10T06:39:24.275Z,2.00
2019-06-10T06:41:49.265Z,2.17
2019-06-10T06:44:15.559Z,1.90
2019-06-10T06:46:42.882Z,1.97
2019-06-10T06:49:08.424Z,2.10
2019-06-10T06:51:47.694Z,1.70
2019-06-10T06:54:03.110Z,2.00
2019-06-10T06:56:28.805Z,1.90
2019-06-10T06:58:53.766Z,2.07
2019-06-10T07:01:23.244Z,2.30
2019-06-10T07:03:46.507Z,1.80
2019-06-10T07:06:13.271Z,1.50
2019-06-10T07:08:39.440Z,2.07
2019-06-10T07:11:05.506Z,1.70
2019-06-10T07:13:35.426Z,1.63
2019-06-10T07:15:58.216Z,2.27
2019-06-10T07:18:24.560Z,2.10
2019-06-10T07:20:53.898Z,2.10
2019-06-10T07:23:17.253Z,1.93
2019-06-10T07:25:47.250Z,1.40
2019-06-10T07:28:09.898Z,2.10
2019-06-10T07:30:39.466Z,2.03
2019-06-10T07:33:02.989Z,2.03
2019-06-10T07:35:28.917Z,1.50
2019-06-10T07:37:55.259Z,2.53
2019-06-10T07:40:22.287Z,1.70
2019-06-10T07:42:48.030Z,1.90
2019-06-10T07:45:14.370Z,1.80
2019-06-10T07:47:41.744Z,1.90
2019-06-10T07:50:07.077Z,1.47
2019-06-10T07:52:34.707Z,1.30
2019-06-10T07:55:02.346Z,1.90
2019-06-10T07:57:26.074Z,1.50
2019-06-10T07:59:52.482Z,1.70
2019-06-10T08:02:18.748Z,1.90
2019-06-10T08:04:46.104Z,2.10
2019-06-10T08:07:12.480Z,1.80
2019-06-10T08:09:38.962Z,1.70
2019-06-10T08:12:05.996Z,1.83
2019-06-10T08:14:32.850Z,1.90
2019-06-10T08:16:56.713Z,2.43
2019-06-10T08:19:34.250Z,2.00
2019-06-10T08:21:49.600Z,2.67
2019-06-10T08:24:15.726Z,2.07
2019-06-10T08:26:43.672Z,2.30
2019-06-10T08:29:08.484Z,2.30
2019-06-10T08:31:34.874Z,2.30
2019-06-10T08:34:03.057Z,2.27
2019-06-10T08:36:27.543Z,2.03
2019-06-10T08:38:53.894Z,2.50
2019-06-10T08:41:22.851Z,1.77
2019-06-10T08:43:48.389Z,2.47
2019-06-10T08:46:13.300Z,2.10
2019-06-10T08:48:39.227Z,2.27
2019-06-10T08:51:05.588Z,2.50
2019-06-10T08:53:33.069Z,2.93
2019-06-10T08:55:58.264Z,1.90
2019-06-10T08:58:24.587Z,2.20
2019-06-10T09:00:53.549Z,2.10
2019-06-10T09:03:17.235Z,1.93
2019-06-10T09:05:46.496Z,1.83
2019-06-10T09:08:09.912Z,2.00
2019-06-10T09:10:36.305Z,2.20
2019-06-10T09:13:02.861Z,2.00
2019-06-10T09:15:29.000Z,2.03
2019-06-10T09:17:56.209Z,1.93
2019-06-10T09:20:22.999Z,1.90
2019-06-10T09:23:00.104Z,1.90
2019-06-10T09:25:14.346Z,1.87
2019-06-10T09:27:42.561Z,2.10
2019-06-10T09:30:07.043Z,1.80
2019-06-10T09:32:33.415Z,1.57
2019-06-10T09:34:59.708Z,2.00
2019-06-10T09:37:26.055Z,1.93
2019-06-10T09:39:59.140Z,2.03
2019-06-10T09:42:18.718Z,2.00
2019-06-10T09:44:47.573Z,2.20
2019-06-10T09:47:13.650Z,2.00
2019-06-10T09:49:37.700Z,1.97
2019-06-10T09:52:04.032Z,2.23
2019-06-10T09:54:30.417Z,2.00
2019-06-10T09:56:56.739Z,1.80
2019-06-10T09:59:23.608Z,2.67
2019-06-10T10:01:56.670Z,2.30
2019-06-10T10:06:44.805Z,1.83
2019-06-10T10:09:08.421Z,1.97
2019-06-10T10:11:34.791Z,2.60
2019-06-10T10:14:08.262Z,2.43
2019-06-10T10:16:27.422Z,2.20
2019-06-10T10:19:00.243Z,1.87
2019-06-10T10:21:22.224Z,2.63
2019-06-10T10:23:54.287Z,2.10
2019-06-10T10:28:39.173Z,1.60
2019-06-10T10:31:05.495Z,1.73
2019-06-10T10:33:33.258Z,1.97
2019-06-10T10:35:58.154Z,1.70
2019-06-10T10:38:24.489Z,1.90
2019-06-10T10:40:57.929Z,1.60
2019-06-10T10:43:28.408Z,1.40
2019-06-10T10:45:47.309Z,1.50
2019-06-10T10:48:09.899Z,1.87
2019-06-10T10:50:36.199Z,1.70
2019-06-10T10:53:02.514Z,1.70
2019-06-10T10:55:28.823Z,1.77
2019-06-10T10:57:55.844Z,3.17
2019-06-10T11:00:22.655Z,1.70
2019-06-10T11:02:50.661Z,1.80
2019-06-10T11:05:14.352Z,1.80
2019-06-10T11:07:42.273Z,1.50
2019-06-10T11:10:07.025Z,2.13
2019-06-10T11:12:33.384Z,1.43
2019-06-10T11:15:02.133Z,1.60
2019-06-10T11:17:26.049Z,2.10
2019-06-10T11:19:54.377Z,1.60
2019-06-10T11:22:18.810Z,1.53
2019-06-10T11:24:47.616Z,1.50
2019-06-10T11:27:12.731Z,1.60
2019-06-10T11:29:37.842Z,1.50
2019-06-10T11:32:04.210Z,1.63
2019-06-10T11:34:33.038Z,1.70
2019-06-10T11:36:58.210Z,1.60
2019-06-10T11:39:23.305Z,1.80
2019-06-10T11:41:50.907Z,1.30
2019-06-10T11:44:16.066Z,1.90
2019-06-10T11:46:43.073Z,2.13
2019-06-10T11:49:08.769Z,1.63
2019-06-10T11:51:35.067Z,1.83
2019-06-10T11:54:03.407Z,1.87
2019-06-10T11:56:27.826Z,1.57
2019-06-10T11:58:56.912Z,2.13
2019-06-10T12:01:22.687Z,2.43
2019-06-10T12:03:46.832Z,2.17
2019-06-10T12:06:13.799Z,1.90
2019-06-10T12:08:39.579Z,1.90
2019-06-10T12:11:05.858Z,1.70
2019-06-10T12:13:34.178Z,1.70
2019-06-10T12:17:05.595Z,1.83
2019-06-10T12:18:24.943Z,1.77
2019-06-10T12:20:55.100Z,2.20
2019-06-10T12:23:17.601Z,1.90
2019-06-10T12:25:47.672Z,1.50
2019-06-10T12:28:12.718Z,1.73
2019-06-10T12:33:05.505Z,1.60
2019-06-10T12:35:29.319Z,2.00
2019-06-10T12:37:58.418Z,1.80
2019-06-10T12:40:22.009Z,1.60
2019-06-10T12:42:48.334Z,1.57
2019-06-10T12:45:14.716Z,2.10
2019-06-10T12:47:42.470Z,1.70
2019-06-10T12:50:07.345Z,1.77
2019-06-10T12:52:33.681Z,1.80
2019-06-10T12:55:00.087Z,2.13
2019-06-10T12:57:26.419Z,1.80
2019-06-10T12:59:54.018Z,2.20
2019-06-10T13:02:24.630Z,1.90
2019-06-10T13:04:45.430Z,1.67
2019-06-10T13:07:12.584Z,2.07
2019-06-10T13:09:38.147Z,1.50
2019-06-10T13:14:32.555Z,1.60
2019-06-10T13:16:57.934Z,1.97
2019-06-10T13:19:23.496Z,1.80
2019-06-10T13:21:49.844Z,2.00
2019-06-10T13:24:16.170Z,1.80
2019-06-10T13:26:43.172Z,1.83
2019-06-10T13:29:10.280Z,2.20
2019-06-10T13:31:35.179Z,1.70
2019-06-10T13:34:06.605Z,1.87
2019-06-10T13:36:27.896Z,1.73
2019-06-10T13:38:54.200Z,1.80
2019-06-10T13:41:22.570Z,2.00
2019-06-10T13:43:46.862Z,1.80
2019-06-10T13:46:13.194Z,2.00
2019-06-10T13:48:39.577Z,1.97
2019-06-10T13:51:09.135Z,1.90
2019-06-10T13:53:32.293Z,1.80
2019-06-10T13:56:19.026Z,2.00
2019-06-10T13:58:25.092Z,2.00
2019-06-10T14:00:53.590Z,1.90
2019-06-10T14:03:17.750Z,1.63
2019-06-10T14:05:45.128Z,1.90
2019-06-10T14:08:12.718Z,2.10
2019-06-10T14:10:36.973Z,2.17
2019-06-10T14:13:05.071Z,1.83
2019-06-10T14:15:29.683Z,1.90
2019-06-10T14:17:56.009Z,2.17
2019-06-10T14:20:23.095Z,1.77
2019-06-10T14:22:48.723Z,2.27
2019-06-10T14:25:16.912Z,2.17
2019-06-10T14:27:42.685Z,1.90
2019-06-10T14:30:07.902Z,2.23
2019-06-10T14:32:34.131Z,2.20
2019-06-10T14:35:00.564Z,1.97
2019-06-10T14:37:38.126Z,2.10
2019-06-10T14:39:53.274Z,1.83
2019-06-10T14:42:19.706Z,2.20
2019-06-10T14:44:46.040Z,2.03
2019-06-10T14:47:13.964Z,1.97
2019-06-10T14:49:38.709Z,1.80
2019-06-10T14:52:05.119Z,2.00
2019-06-10T14:54:32.214Z,2.03
2019-06-10T14:56:57.856Z,1.87
2019-06-10T14:59:24.152Z,1.80
2019-06-10T15:01:52.153Z,2.00
2019-06-10T15:04:18.286Z,2.10
2019-06-10T15:06:43.497Z,2.60
2019-06-10T15:09:09.588Z,2.17
2019-06-10T15:11:35.913Z,2.00
2019-06-10T15:16:28.541Z,1.90
2019-06-10T15:19:02.625Z,2.10
2019-06-10T15:21:23.161Z,2.00
2019-06-10T15:23:47.605Z,1.90
2019-06-10T15:26:16.012Z,3.03
2019-06-10T15:28:42.603Z,1.93
2019-06-10T15:31:06.635Z,2.07
2019-06-10T15:33:33.004Z,2.23
2019-06-10T15:35:59.335Z,2.20
2019-06-10T15:38:25.664Z,2.43
2019-06-10T15:40:53.123Z,2.20
2019-06-10T15:43:18.338Z,2.03
2019-06-10T15:45:44.667Z,1.70
2019-06-10T15:48:13.649Z,2.00
2019-06-10T15:50:37.354Z,1.57
2019-06-10T15:53:03.686Z,2.03
2019-06-10T15:56:04.954Z,1.90
2019-06-10T16:00:28.841Z,1.97
2019-06-10T16:02:49.088Z,2.80
2019-06-10T16:05:16.108Z,1.60
2019-06-10T16:07:42.395Z,1.87
2019-06-10T16:10:08.121Z,1.90
2019-06-10T16:12:34.473Z,1.70
2019-06-10T16:15:02.615Z,1.40
2019-06-10T16:17:30.023Z,1.77
2019-06-10T16:19:53.585Z,1.70
2019-06-10T16:22:19.949Z,1.67
2019-06-10T16:24:46.283Z,1.80
2019-06-10T16:27:14.153Z,1.60
2019-06-10T16:29:38.971Z,1.50
2019-06-10T16:32:05.305Z,1.63
2019-06-10T16:34:32.584Z,1.70
2019-06-10T16:36:57.957Z,1.83
2019-06-10T16:39:26.772Z,1.73
2019-06-10T16:41:52.265Z,1.50
2019-06-10T16:46:43.328Z,1.80
2019-06-10T16:49:09.648Z,1.57
2019-06-10T16:51:36.008Z,1.60
2019-06-10T16:54:02.489Z,1.60
2019-06-10T16:56:30.262Z,1.80
2019-06-10T16:58:55.066Z,1.77
2019-06-10T17:01:24.968Z,1.70
2019-06-10T17:03:47.716Z,1.53
2019-06-10T17:06:14.050Z,1.37
2019-06-10T17:08:42.245Z,1.40
2019-06-10T17:11:06.755Z,1.70
2019-06-10T17:13:33.078Z,1.60
2019-06-10T17:15:59.418Z,2.10
2019-06-10T17:18:27.806Z,1.60
2019-06-10T17:20:53.538Z,1.80
2019-06-10T17:23:18.767Z,1.50
2019-06-10T17:25:44.862Z,1.60
2019-06-10T17:28:18.199Z,1.50
2019-06-10T17:30:37.504Z,1.50
2019-06-10T17:33:03.836Z,1.57
2019-06-10T17:35:36.364Z,1.60
2019-06-10T17:37:56.643Z,1.50
2019-06-10T17:40:23.483Z,1.53
2019-06-10T17:42:49.339Z,1.50
2019-06-10T17:45:15.670Z,1.40
2019-06-10T17:47:42.721Z,1.50
2019-06-10T17:50:08.321Z,1.50
2019-06-10T17:52:38.543Z,1.40
2019-06-10T17:55:03.224Z,1.33
2019-06-10T17:57:28.730Z,1.50
2019-06-10T17:59:53.679Z,1.40
2019-06-10T18:02:20.001Z,1.70
2019-06-10T18:04:46.341Z,1.70
2019-06-10T18:07:13.125Z,1.53
2019-06-10T18:09:39.115Z,1.40
2019-06-10T18:12:05.518Z,1.50
2019-06-10T18:14:33.314Z,1.37
2019-06-10T18:16:58.177Z,1.80
2019-06-10T18:19:24.548Z,1.40
2019-06-10T18:21:52.271Z,1.57
2019-06-10T18:24:20.650Z,1.53
2019-06-10T18:26:43.667Z,1.60
2019-06-10T18:29:12.619Z,1.53
2019-06-10T18:31:37.097Z,1.67
2019-06-10T18:34:02.687Z,2.07
2019-06-10T18:36:30.640Z,1.90
2019-06-10T18:38:55.358Z,1.67
2019-06-10T18:41:22.372Z,2.10
2019-06-10T18:43:48.075Z,1.70
2019-06-10T18:46:14.405Z,1.80
2019-06-10T18:48:43.123Z,1.70
2019-06-10T18:51:07.212Z,1.60
2019-06-10T18:53:35.149Z,1.70
2019-06-10T18:55:59.944Z,1.80
2019-06-10T18:58:26.277Z,1.77
2019-06-10T19:01:00.657Z,2.00
2019-06-10T19:03:18.948Z,1.50
2019-06-10T19:05:45.324Z,1.70
2019-06-10T19:08:11.682Z,1.53
2019-06-10T19:10:38.984Z,1.60
2019-06-10T19:13:04.374Z,1.67
2019-06-10T19:15:31.841Z,1.80
2019-06-10T19:17:57.037Z,1.60
2019-06-10T19:22:49.829Z,1.83
2019-06-10T19:25:16.201Z,1.77
2019-06-10T19:27:44.241Z,1.70
2019-06-10T19:30:08.829Z,1.80
2019-06-10T19:32:36.769Z,1.90
2019-06-10T19:35:02.833Z,2.00
2019-06-10T19:37:27.953Z,1.70
2019-06-10T19:39:54.324Z,2.10
2019-06-10T19:44:46.934Z,1.90
2019-06-10T19:47:13.301Z,1.80
2019-06-10T19:49:41.180Z,1.80
2019-06-10T19:52:05.974Z,1.97
2019-06-10T19:54:33.456Z,1.80
2019-06-10T19:56:58.719Z,2.27
2019-06-10T19:59:25.072Z,1.83
2019-06-10T20:01:53.887Z,1.77
2019-06-10T20:04:18.267Z,1.73
2019-06-10T20:06:50.138Z,1.83
2019-06-10T20:09:12.802Z,2.03
2019-06-10T20:11:38.208Z,1.70
2019-06-10T20:14:03.198Z,2.00
2019-06-10T20:18:55.967Z,2.00
2019-06-10T20:21:22.757Z,2.00
2019-06-10T20:23:48.651Z,1.80
2019-06-10T20:26:14.966Z,1.90
2019-06-10T20:28:46.661Z,1.93
2019-06-10T20:31:12.757Z,1.77
2019-06-10T20:33:38.583Z,1.97
2019-06-10T20:36:07.540Z,2.00
2019-06-10T20:38:32.575Z,1.80
2019-06-10T20:40:56.738Z,1.80
2019-06-10T20:43:23.051Z,1.53
2019-06-10T20:45:50.059Z,2.00
2019-06-10T20:48:15.722Z,1.90
2019-06-10T20:53:14.034Z,1.80
2019-06-10T20:55:41.074Z,1.80
2019-06-10T20:58:04.225Z,1.40
2019-06-10T21:00:27.430Z,2.00
2019-06-10T21:02:53.814Z,1.60
2019-06-10T21:05:22.332Z,1.60
2019-06-10T21:07:47.263Z,1.70
2019-06-10T21:10:12.963Z,1.70
2019-06-10T21:12:39.718Z,1.80
2019-06-10T21:15:05.590Z,1.60
2019-06-10T21:17:33.312Z,1.70
2019-06-10T21:19:58.299Z,1.33
2019-06-10T21:22:24.641Z,1.60
2019-06-10T21:24:53.389Z,1.40
2019-06-10T21:27:17.381Z,1.60
2019-06-10T21:29:46.852Z,1.50
2019-06-10T21:32:12.355Z,1.50
2019-06-10T21:34:36.372Z,1.53
2019-06-10T21:37:03.253Z,1.70
2019-06-10T21:39:29.080Z,1.60
2019-06-10T21:41:55.463Z,1.47
2019-06-10T21:44:23.198Z,1.60
2019-06-10T21:46:48.786Z,1.60
2019-06-10T21:49:14.427Z,1.57
2019-06-10T21:51:43.685Z,1.53
2019-06-10T21:54:07.118Z,1.40
2019-06-10T21:59:02.268Z,1.70
2019-06-10T22:01:26.185Z,1.47
2019-06-10T22:03:58.768Z,1.67
2019-06-10T22:06:18.952Z,1.70
2019-06-10T22:08:45.748Z,1.57
2019-06-10T22:11:13.460Z,1.60
2019-06-10T22:13:38.014Z,1.43
2019-06-10T22:16:04.342Z,1.70
2019-06-10T22:18:32.188Z,1.30
2019-06-10T22:20:57.703Z,1.57
2019-06-10T22:23:23.431Z,1.60
2019-06-10T22:25:51.365Z,1.63
2019-06-10T22:28:16.068Z,1.40
2019-06-10T22:33:08.730Z,1.63
2019-06-10T22:35:35.058Z,1.50
2019-06-10T22:38:02.571Z,1.47
2019-06-10T22:40:27.748Z,1.40
2019-06-10T22:42:55.496Z,1.40
2019-06-10T22:45:20.409Z,1.40
2019-06-10T22:47:47.643Z,1.30
2019-06-10T22:50:13.100Z,1.43
2019-06-10T22:52:39.462Z,1.30
2019-06-10T22:55:05.826Z,1.40
2019-06-10T22:57:32.195Z,1.60
2019-06-10T22:59:59.462Z,1.33
2019-06-10T23:02:24.886Z,1.33
2019-06-10T23:04:54.502Z,1.50
2019-06-10T23:07:17.642Z,1.50
2019-06-10T23:09:43.948Z,1.50
2019-06-10T23:12:12.062Z,1.40
2019-06-10T23:14:36.601Z,1.70
2019-06-10T23:17:03.177Z,1.30
2019-06-10T23:19:29.252Z,1.23
2019-06-10T23:21:56.935Z,1.20
2019-06-10T23:24:22.685Z,1.43
2019-06-10T23:26:48.308Z,1.20
2019-06-10T23:29:14.668Z,1.30
2019-06-10T23:31:52.319Z,1.10
2019-06-10T23:34:07.355Z,1.30
2019-06-10T23:36:33.712Z,1.17
2019-06-10T23:39:01.610Z,1.17
2019-06-10T23:41:26.410Z,1.37
2019-06-10T23:43:53.048Z,1.40
2019-06-10T23:46:19.071Z,1.40
2019-06-10T23:48:45.401Z,1.40
2019-06-10T23:51:12.105Z,1.37
2019-06-10T23:53:38.139Z,1.30
2019-06-10T23:56:05.066Z,1.23
2019-06-10T23:58:32.882Z,1.30
